createdAt,value
2022-12-09T00:01:08.074Z,30.48
2022-12-09T00:03:36.438Z,40.25
2022-12-09T00:06:07.943Z,38.35
2022-12-09T00:08:36.701Z,39.60
2022-12-09T00:11:05.081Z,33.83
2022-12-09T00:13:34.637Z,39.15
2022-12-09T00:16:07.215Z,36.75
2022-12-09T00:18:35.427Z,35.58
2022-12-09T00:21:13.480Z,38.45
2022-12-09T00:23:41.321Z,33.95
2022-12-09T00:26:09.835Z,34.88
2022-12-09T00:28:39.673Z,38.88
2022-12-09T00:31:08.398Z,37.67
2022-12-09T00:33:36.648Z,36.47
2022-12-09T00:36:06.924Z,38.90
2022-12-09T00:38:34.813Z,35.75
2022-12-09T00:41:02.740Z,42.42
2022-12-09T00:43:30.750Z,41.50
2022-12-09T00:46:00.080Z,42.38
2022-12-09T00:48:28.413Z,31.83
2022-12-09T00:50:56.471Z,38.38
2022-12-09T00:53:25.012Z,36.28
2022-12-09T00:55:53.165Z,35.38
2022-12-09T00:58:21.087Z,39.08
2022-12-09T01:00:49.138Z,39.33
2022-12-09T01:03:19.562Z,38.22
2022-12-09T01:05:47.855Z,35.80
2022-12-09T01:08:16.320Z,40.92
2022-12-09T01:10:46.387Z,41.45
2022-12-09T01:13:15.983Z,39.80
2022-12-09T01:15:44.812Z,43.70
2022-12-09T01:18:13.662Z,38.55
2022-12-09T01:20:43.275Z,40.53
2022-12-09T01:23:11.618Z,40.05
2022-12-09T01:25:39.979Z,46.70
2022-12-09T01:28:07.937Z,41.85
2022-12-09T01:30:38.645Z,43.78
2022-12-09T01:33:06.863Z,41.70
2022-12-09T01:35:35.467Z,40.95
2022-12-09T01:38:04.812Z,42.83
2022-12-09T01:40:33.216Z,44.10
2022-12-09T01:43:01.264Z,40.85
2022-12-09T01:45:44.171Z,51.72
2022-12-09T01:48:14.460Z,43.80
2022-12-09T01:50:47.443Z,47.95
2022-12-09T01:53:19.589Z,47.03
2022-12-09T01:55:47.705Z,39.42
2022-12-09T01:58:16.128Z,48.05
2022-12-09T02:00:45.740Z,45.33
2022-12-09T02:03:14.357Z,44.10
2022-12-09T02:05:43.357Z,44.50
2022-12-09T02:08:13.802Z,42.60
2022-12-09T02:10:53.261Z,42.03
2022-12-09T02:13:29.990Z,41.55
2022-12-09T02:16:00.417Z,45.22
2022-12-09T02:18:36.800Z,40.92
2022-12-09T02:21:10.693Z,43.55
2022-12-09T02:23:45.898Z,44.45
2022-12-09T02:26:22.380Z,46.80
2022-12-09T02:29:14.282Z,44.75
2022-12-09T02:31:56.180Z,47.13
2022-12-09T02:34:29.575Z,47.92
2022-12-09T02:37:03.061Z,42.60
2022-12-09T02:39:36.617Z,41.97
2022-12-09T02:42:07.846Z,45.92
2022-12-09T02:44:37.916Z,54.40
2022-12-09T02:47:08.235Z,48.58
2022-12-09T02:49:39.541Z,52.40
2022-12-09T02:52:08.093Z,59.53
2022-12-09T02:54:39.077Z,46.90
2022-12-09T02:57:14.058Z,46.08
2022-12-09T02:59:42.014Z,45.08
2022-12-09T03:02:20.131Z,52.90
2022-12-09T03:05:02.343Z,55.23
2022-12-09T03:07:44.060Z,46.72
2022-12-09T03:10:18.942Z,49.72
2022-12-09T03:12:53.799Z,51.20
2022-12-09T03:15:27.582Z,50.85
2022-12-09T03:17:58.143Z,51.77
2022-12-09T03:20:31.040Z,57.50
2022-12-09T03:23:01.646Z,57.83
2022-12-09T03:25:33.802Z,52.90
2022-12-09T03:28:04.741Z,52.50
2022-12-09T03:30:36.772Z,50.05
2022-12-09T03:33:06.106Z,53.50
2022-12-09T03:35:39.226Z,51.20
2022-12-09T03:38:11.033Z,48.77
2022-12-09T03:40:40.676Z,49.10
2022-12-09T03:43:14.150Z,51.97
2022-12-09T03:45:43.259Z,45.83
2022-12-09T03:48:12.686Z,51.80
2022-12-09T03:50:49.428Z,48.23
2022-12-09T03:53:22.653Z,59.37
2022-12-09T03:55:59.335Z,64.03
2022-12-09T03:58:29.003Z,59.33
2022-12-09T04:00:57.424Z,59.23
2022-12-09T04:03:26.638Z,62.33
2022-12-09T04:05:55.940Z,58.33
2022-12-09T04:08:24.050Z,53.53
2022-12-09T04:10:52.161Z,56.30
2022-12-09T04:13:20.375Z,58.57
2022-12-09T04:15:48.372Z,57.47
2022-12-09T04:18:16.336Z,64.27
2022-12-09T04:20:44.204Z,66.33
2022-12-09T04:23:13.481Z,68.07
2022-12-09T04:25:41.605Z,53.53
2022-12-09T04:28:09.749Z,56.23
2022-12-09T04:30:37.611Z,57.95
2022-12-09T04:33:05.825Z,67.75
2022-12-09T04:35:33.727Z,55.40
2022-12-09T04:38:01.542Z,58.20
2022-12-09T04:40:30.847Z,56.60
2022-12-09T04:42:58.886Z,63.88
2022-12-09T04:45:26.838Z,59.85
2022-12-09T04:47:55.091Z,57.63
2022-12-09T04:50:23.027Z,58.05
2022-12-09T04:52:50.948Z,56.45
2022-12-09T04:55:19.254Z,55.50
2022-12-09T04:57:48.683Z,61.33
2022-12-09T05:00:18.009Z,62.03
2022-12-09T05:02:46.193Z,54.20
2022-12-09T05:05:14.399Z,54.75
2022-12-09T05:07:43.249Z,53.80
2022-12-09T05:10:11.950Z,52.38
2022-12-09T05:12:40.461Z,54.08
2022-12-09T05:15:11.058Z,52.30
2022-12-09T05:17:39.195Z,58.97
2022-12-09T05:20:09.623Z,54.50
2022-12-09T05:22:38.002Z,58.08
2022-12-09T05:25:06.876Z,58.78
2022-12-09T05:27:34.967Z,53.97
2022-12-09T05:30:03.583Z,52.63
2022-12-09T05:32:33.601Z,56.67
2022-12-09T05:35:02.017Z,60.08
2022-12-09T05:37:30.230Z,55.33
2022-12-09T05:39:58.217Z,52.88
2022-12-09T05:42:26.402Z,53.58
2022-12-09T05:44:55.297Z,52.20
2022-12-09T05:47:23.473Z,46.83
2022-12-09T05:49:53.220Z,51.80
2022-12-09T05:52:21.634Z,61.20
2022-12-09T05:54:49.890Z,53.47
2022-12-09T05:57:17.933Z,55.40
2022-12-09T05:59:46.462Z,50.88
2022-12-09T06:02:14.570Z,50.97
2022-12-09T06:04:42.863Z,57.00
2022-12-09T06:07:12.482Z,60.47
2022-12-09T06:09:41.162Z,53.25
2022-12-09T06:12:09.599Z,52.30
2022-12-09T06:14:38.231Z,61.00
2022-12-09T06:17:06.299Z,54.78
2022-12-09T06:19:35.137Z,51.78
2022-12-09T06:22:03.457Z,57.17
2022-12-09T06:24:33.131Z,57.08
2022-12-09T06:27:00.942Z,58.33
2022-12-09T06:29:29.495Z,63.67
2022-12-09T06:31:57.668Z,63.77
2022-12-09T06:34:26.210Z,57.83
2022-12-09T06:36:54.270Z,63.65
2022-12-09T06:39:22.297Z,66.20
2022-12-09T06:41:51.634Z,60.67
2022-12-09T06:44:23.477Z,62.30
2022-12-09T06:46:52.366Z,62.87
2022-12-09T06:49:20.834Z,66.67
2022-12-09T06:51:49.330Z,62.03
2022-12-09T06:54:18.058Z,68.47
2022-12-09T06:56:46.505Z,65.57
2022-12-09T06:59:16.189Z,65.23
2022-12-09T07:01:45.785Z,66.07
2022-12-09T07:04:15.740Z,62.50
2022-12-09T07:06:45.945Z,63.60
2022-12-09T07:09:16.634Z,71.67
2022-12-09T07:11:46.357Z,71.90
2022-12-09T07:14:18.359Z,71.00
2022-12-09T07:16:46.890Z,78.53
2022-12-09T07:19:19.178Z,76.90
2022-12-09T07:21:47.881Z,85.53
2022-12-09T07:24:16.236Z,83.40
2022-12-09T07:26:44.576Z,81.57
2022-12-09T07:29:12.846Z,93.30
2022-12-09T07:31:42.380Z,77.20
2022-12-09T07:34:12.069Z,78.70
2022-12-09T07:36:40.682Z,89.63
2022-12-09T07:39:12.825Z,91.75
2022-12-09T07:41:41.298Z,91.75
2022-12-09T07:44:10.517Z,102.90
2022-12-09T07:46:39.703Z,103.17
2022-12-09T07:49:09.535Z,108.30
2022-12-09T07:51:38.349Z,96.57
2022-12-09T07:54:06.864Z,97.83
2022-12-09T07:56:35.095Z,98.40
2022-12-09T07:59:03.408Z,91.97
2022-12-09T08:01:31.729Z,90.97
2022-12-09T08:04:00.337Z,91.63
2022-12-09T08:06:32.209Z,91.95
2022-12-09T08:09:01.842Z,88.10
2022-12-09T08:11:32.152Z,91.97
2022-12-09T08:14:08.883Z,81.30
2022-12-09T08:16:39.226Z,84.50
2022-12-09T08:19:07.365Z,79.78
2022-12-09T08:21:37.592Z,74.70
2022-12-09T08:24:07.772Z,81.93
2022-12-09T08:26:37.563Z,68.28
2022-12-09T08:29:09.787Z,73.68
2022-12-09T08:31:41.641Z,69.07
2022-12-09T08:34:11.274Z,66.05
2022-12-09T08:36:41.079Z,70.40
2022-12-09T08:39:09.996Z,71.60
2022-12-09T08:41:39.936Z,62.37
2022-12-09T08:44:10.396Z,68.30
2022-12-09T08:46:41.794Z,71.38
2022-12-09T08:49:10.055Z,65.70
2022-12-09T08:51:41.232Z,69.60
2022-12-09T08:54:09.405Z,66.22
2022-12-09T08:56:38.010Z,68.70
2022-12-09T08:59:06.834Z,60.30
2022-12-09T09:01:36.066Z,62.20
2022-12-09T09:04:08.456Z,60.10
2022-12-09T09:06:38.397Z,53.78
2022-12-09T09:09:09.282Z,57.78
2022-12-09T09:11:38.470Z,58.33
2022-12-09T09:14:09.207Z,67.03
2022-12-09T09:16:40.845Z,73.33
2022-12-09T09:19:09.709Z,62.05
2022-12-09T09:21:37.876Z,68.28
2022-12-09T09:24:12.213Z,53.85
2022-12-09T09:26:42.607Z,52.25
2022-12-09T09:29:12.674Z,49.83
2022-12-09T09:31:41.152Z,51.17
2022-12-09T09:34:10.239Z,52.05
2022-12-09T09:36:38.448Z,44.20
2022-12-09T09:39:06.909Z,45.25
2022-12-09T09:41:45.473Z,40.55
2022-12-09T09:44:21.167Z,43.60
2022-12-09T09:46:51.902Z,43.70
2022-12-09T09:49:26.261Z,44.00
2022-12-09T09:51:54.933Z,43.42
2022-12-09T09:54:23.497Z,40.55
2022-12-09T09:56:58.848Z,45.42
2022-12-09T09:59:39.192Z,40.45
2022-12-09T10:02:19.766Z,42.00
2022-12-09T10:05:04.532Z,44.15
2022-12-09T10:07:40.908Z,43.40
2022-12-09T10:10:22.961Z,41.63
2022-12-09T10:13:09.424Z,38.75
2022-12-09T10:15:48.489Z,44.60
2022-12-09T10:18:20.184Z,41.42
2022-12-09T10:20:48.923Z,44.10
2022-12-09T10:23:19.074Z,40.03
2022-12-09T10:25:52.216Z,39.28
2022-12-09T10:28:24.715Z,38.28
2022-12-09T10:30:54.901Z,39.08
2022-12-09T10:33:28.386Z,44.50
2022-12-09T10:35:56.894Z,36.65
2022-12-09T10:38:26.812Z,37.92
2022-12-09T10:41:02.196Z,36.25
2022-12-09T10:43:37.572Z,37.13
2022-12-09T10:46:19.153Z,33.67
2022-12-09T10:48:55.939Z,32.35
2022-12-09T10:51:27.427Z,34.40
2022-12-09T10:53:59.012Z,32.15
2022-12-09T10:56:29.934Z,39.88
2022-12-09T10:59:18.856Z,36.80
2022-12-09T11:01:51.773Z,34.80
2022-12-09T11:04:25.222Z,37.53
2022-12-09T11:06:59.407Z,38.38
2022-12-09T11:09:33.168Z,38.70
2022-12-09T11:12:02.269Z,35.65
2022-12-09T11:14:36.748Z,34.72
2022-12-09T11:17:18.662Z,40.17
2022-12-09T11:19:51.387Z,34.53
2022-12-09T11:22:36.462Z,37.47
2022-12-09T11:25:24.900Z,39.33
2022-12-09T11:27:55.501Z,34.25
2022-12-09T11:30:27.537Z,33.17
2022-12-09T11:33:19.605Z,33.08
2022-12-09T11:35:58.477Z,40.83
2022-12-09T11:38:35.647Z,39.05
2022-12-09T11:41:08.029Z,38.53
2022-12-09T11:43:42.475Z,40.75
2022-12-09T11:46:23.086Z,34.00
2022-12-09T11:48:56.714Z,33.90
2022-12-09T11:51:29.823Z,37.70
2022-12-09T11:54:03.641Z,35.67
2022-12-09T11:56:33.978Z,36.92
2022-12-09T11:59:05.549Z,36.92
2022-12-09T12:01:45.563Z,36.65
2022-12-09T12:04:17.781Z,34.58
2022-12-09T12:06:48.841Z,35.55
2022-12-09T12:09:23.389Z,36.55
2022-12-09T12:12:02.582Z,36.58
2022-12-09T12:14:31.573Z,34.85
2022-12-09T12:17:10.942Z,40.97
2022-12-09T12:19:41.051Z,38.22
2022-12-09T12:22:28.533Z,36.78
2022-12-09T12:25:17.513Z,35.72
2022-12-09T12:27:59.834Z,37.42
2022-12-09T12:30:40.464Z,35.15
2022-12-09T12:36:33.715Z,34.15
2022-12-09T12:39:14.720Z,37.35
2022-12-09T12:41:51.765Z,34.03
2022-12-09T12:45:10.967Z,41.03
2022-12-09T12:47:51.392Z,34.65
2022-12-09T12:51:01.873Z,36.03
2022-12-09T12:53:40.304Z,37.75
2022-12-09T12:56:12.337Z,38.45
2022-12-09T12:59:07.954Z,34.53
2022-12-09T13:01:53.965Z,32.95
2022-12-09T13:04:26.201Z,33.45
2022-12-09T13:07:06.424Z,34.00
2022-12-09T13:09:43.611Z,35.92
2022-12-09T13:12:16.815Z,34.00
2022-12-09T13:14:53.391Z,34.08
2022-12-09T13:17:24.518Z,36.60
2022-12-09T13:19:54.215Z,32.47
2022-12-09T13:22:34.276Z,32.67
2022-12-09T13:25:13.704Z,31.75
2022-12-09T13:27:46.195Z,36.13
2022-12-09T13:30:18.937Z,26.08
2022-12-09T13:33:02.371Z,31.35
2022-12-09T13:35:36.815Z,30.65
2022-12-09T13:38:25.767Z,31.10
2022-12-09T13:40:53.979Z,30.23
2022-12-09T13:43:25.748Z,33.92
2022-12-09T13:45:57.374Z,29.35
2022-12-09T13:48:45.333Z,30.55
2022-12-09T13:51:14.609Z,32.28
2022-12-09T13:54:01.199Z,33.90
2022-12-09T13:56:31.705Z,28.15
2022-12-09T13:59:32.719Z,30.33
2022-12-09T14:02:11.365Z,30.42
2022-12-09T14:04:47.755Z,32.50
2022-12-09T14:07:27.395Z,34.97
2022-12-09T14:09:58.142Z,32.28
2022-12-09T14:13:05.072Z,32.85
2022-12-09T14:15:39.249Z,33.30
2022-12-09T14:18:28.675Z,32.08
2022-12-09T14:21:31.531Z,32.55
2022-12-09T14:24:36.774Z,31.05
2022-12-09T14:27:17.492Z,25.63
2022-12-09T14:29:48.793Z,29.27
2022-12-09T14:32:26.037Z,30.55
2022-12-09T14:35:22.575Z,33.78
2022-12-09T14:38:02.825Z,28.65
2022-12-09T14:40:52.719Z,38.20
2022-12-09T14:43:50.484Z,29.48
2022-12-09T14:46:30.101Z,30.75
2022-12-09T14:49:02.554Z,30.33
2022-12-09T14:51:36.780Z,32.10
2022-12-09T14:54:26.135Z,30.10
2022-12-09T14:56:57.675Z,30.52
2022-12-09T14:59:29.115Z,30.00
2022-12-09T15:01:59.147Z,32.17
2022-12-09T15:04:31.389Z,32.28
2022-12-09T15:07:25.176Z,34.25
2022-12-09T15:09:55.825Z,29.17
2022-12-09T15:12:28.310Z,31.52
2022-12-09T15:15:00.853Z,33.05
2022-12-09T15:17:32.895Z,30.52
2022-12-09T15:20:12.159Z,34.38
2022-12-09T15:22:40.252Z,33.28
2022-12-09T15:25:18.174Z,32.42
2022-12-09T15:27:57.451Z,31.80
2022-12-09T15:30:31.324Z,34.28
2022-12-09T15:32:59.595Z,32.17
2022-12-09T15:35:29.765Z,29.65
2022-12-09T15:38:04.933Z,30.55
2022-12-09T15:40:35.807Z,32.03
2022-12-09T15:43:10.143Z,28.25
2022-12-09T15:45:44.109Z,32.17
2022-12-09T15:48:17.291Z,40.15
2022-12-09T15:50:50.996Z,32.17
2022-12-09T15:53:24.296Z,34.75
2022-12-09T15:55:55.120Z,31.63
2022-12-09T15:58:26.430Z,30.38
2022-12-09T16:00:56.322Z,33.55
2022-12-09T16:03:27.244Z,31.57
2022-12-09T16:05:58.861Z,29.42
2022-12-09T16:08:33.592Z,30.48
2022-12-09T16:11:01.948Z,39.15
2022-12-09T16:13:29.921Z,33.08
2022-12-09T16:16:00.804Z,31.08
2022-12-09T16:18:33.291Z,29.27
2022-12-09T16:21:26.638Z,25.50
2022-12-09T16:23:57.981Z,28.33
2022-12-09T16:26:30.878Z,28.30
2022-12-09T16:29:00.896Z,28.25
2022-12-09T16:31:30.749Z,29.92
2022-12-09T16:33:59.245Z,32.55
2022-12-09T16:36:29.495Z,27.25
2022-12-09T16:39:34.633Z,35.20
2022-12-09T16:42:03.413Z,31.08
2022-12-09T16:44:36.824Z,30.17
2022-12-09T16:47:17.447Z,31.13
2022-12-09T16:49:49.569Z,31.13
2022-12-09T16:52:21.233Z,29.98
2022-12-09T16:54:51.195Z,29.13
2022-12-09T16:57:21.324Z,30.20
2022-12-09T16:59:49.268Z,31.08
2022-12-09T17:02:22.534Z,27.85
2022-12-09T17:04:52.674Z,26.02
2022-12-09T17:07:20.694Z,31.92
2022-12-09T17:09:48.554Z,29.48
2022-12-09T17:12:16.482Z,25.45
2022-12-09T17:14:44.510Z,26.33
2022-12-09T17:17:12.522Z,25.17
2022-12-09T17:19:43.050Z,28.13
2022-12-09T17:22:11.839Z,27.02
2022-12-09T17:24:39.831Z,29.00
2022-12-09T17:27:07.876Z,26.30
2022-12-09T17:29:36.875Z,27.15
2022-12-09T17:32:05.632Z,23.50
2022-12-09T17:34:33.798Z,23.25
2022-12-09T17:37:03.058Z,26.23
2022-12-09T17:39:32.344Z,30.33
2022-12-09T17:42:00.404Z,29.05
2022-12-09T17:44:29.035Z,23.40
2022-12-09T17:46:57.379Z,28.17
2022-12-09T17:49:26.423Z,33.47
2022-12-09T17:51:59.656Z,28.48
2022-12-09T17:54:29.760Z,37.58
2022-12-09T17:56:57.738Z,47.42
2022-12-09T17:59:25.579Z,41.58
2022-12-09T18:01:53.474Z,28.85
2022-12-09T18:04:21.363Z,33.38
2022-12-09T18:06:49.370Z,36.85
2022-12-09T18:09:19.954Z,27.33
2022-12-09T18:11:50.891Z,33.03
2022-12-09T18:14:19.954Z,27.67
2022-12-09T18:16:49.200Z,27.70
2022-12-09T18:19:20.369Z,26.60
2022-12-09T18:21:48.414Z,24.67
2022-12-09T18:24:16.466Z,25.23
2022-12-09T18:26:45.224Z,25.35
2022-12-09T18:29:14.805Z,30.60
2022-12-09T18:31:45.657Z,27.30
2022-12-09T18:34:13.726Z,27.95
2022-12-09T18:36:41.819Z,27.55
2022-12-09T18:39:09.711Z,33.13
2022-12-09T18:41:37.602Z,33.50
2022-12-09T18:44:07.373Z,31.05
2022-12-09T18:46:39.222Z,33.05
2022-12-09T18:49:09.254Z,31.73
2022-12-09T18:51:38.917Z,29.83
2022-12-09T18:54:07.550Z,30.80
2022-12-09T18:56:36.621Z,28.60
2022-12-09T18:59:07.583Z,29.45
2022-12-09T19:01:40.304Z,34.85
2022-12-09T19:04:11.790Z,33.53
2022-12-09T19:06:41.434Z,29.98
2022-12-09T19:09:11.302Z,32.35
2022-12-09T19:11:43.777Z,34.22
2022-12-09T19:14:12.435Z,29.63
2022-12-09T19:16:42.575Z,29.80
2022-12-09T19:19:13.463Z,35.75
2022-12-09T19:21:41.776Z,34.83
2022-12-09T19:24:15.126Z,37.05
2022-12-09T19:26:43.945Z,30.25
2022-12-09T19:29:12.762Z,32.58
2022-12-09T19:31:44.307Z,29.17
2022-12-09T19:34:15.944Z,32.70
2022-12-09T19:36:45.318Z,38.00
2022-12-09T19:39:14.834Z,32.70
2022-12-09T19:41:43.947Z,34.45
2022-12-09T19:44:15.356Z,32.30
2022-12-09T19:46:45.275Z,29.58
2022-12-09T19:49:15.061Z,33.35
2022-12-09T19:51:44.492Z,31.88
2022-12-09T19:54:12.472Z,33.40
2022-12-09T19:56:41.020Z,35.50
2022-12-09T19:59:09.151Z,34.13
2022-12-09T20:01:39.080Z,34.33
2022-12-09T20:04:46.418Z,31.55
2022-12-09T20:07:02.453Z,34.55
2022-12-09T20:09:34.421Z,32.33
2022-12-09T20:12:02.308Z,27.65
2022-12-09T20:14:30.268Z,33.60
2022-12-09T20:16:58.172Z,31.52
2022-12-09T20:19:27.847Z,31.20
2022-12-09T20:21:55.833Z,34.42
2022-12-09T20:24:23.820Z,32.10
2022-12-09T20:26:51.869Z,33.78
2022-12-09T20:29:19.743Z,34.08
2022-12-09T20:31:47.814Z,28.25
2022-12-09T20:34:18.032Z,30.67
2022-12-09T20:36:48.569Z,26.33
2022-12-09T20:39:19.156Z,34.10
2022-12-09T20:41:48.078Z,31.63
2022-12-09T20:44:16.849Z,31.45
2022-12-09T20:46:47.731Z,28.88
2022-12-09T20:49:15.883Z,29.65
2022-12-09T20:51:45.410Z,30.77
2022-12-09T20:54:15.066Z,29.55
2022-12-09T20:56:47.695Z,33.67
2022-12-09T20:59:15.562Z,29.65
2022-12-09T21:01:47.098Z,29.88
2022-12-09T21:04:15.189Z,32.80
2022-12-09T21:06:43.822Z,29.30
2022-12-09T21:09:18.594Z,27.27
2022-12-09T21:11:46.967Z,29.48
2022-12-09T21:14:18.126Z,33.67
2022-12-09T21:16:50.595Z,31.00
2022-12-09T21:19:22.554Z,30.98
2022-12-09T21:21:50.851Z,29.73
2022-12-09T21:24:21.825Z,27.15
2022-12-09T21:26:53.067Z,38.80
2022-12-09T21:29:22.321Z,39.20
2022-12-09T21:31:54.494Z,30.15
2022-12-09T21:34:24.220Z,34.45
2022-12-09T21:36:52.872Z,34.38
2022-12-09T21:39:22.132Z,31.45
2022-12-09T21:41:50.469Z,30.45
2022-12-09T21:44:20.019Z,35.20
2022-12-09T21:46:47.829Z,30.33
2022-12-09T21:49:16.062Z,32.83
2022-12-09T21:51:44.734Z,34.40
2022-12-09T21:54:12.780Z,33.97
2022-12-09T21:56:43.776Z,30.38
2022-12-09T21:59:14.436Z,34.63
2022-12-09T22:01:43.740Z,34.90
2022-12-09T22:04:13.408Z,31.55
2022-12-09T22:06:41.546Z,38.83
2022-12-09T22:09:11.423Z,33.92
2022-12-09T22:11:41.384Z,32.60
2022-12-09T22:14:11.067Z,35.50
2022-12-09T22:16:41.583Z,34.08
2022-12-09T22:19:13.880Z,30.45
2022-12-09T22:21:42.191Z,31.75
2022-12-09T22:24:11.809Z,31.05
2022-12-09T22:26:43.576Z,30.27
2022-12-09T22:29:14.021Z,29.55
2022-12-09T22:31:43.254Z,31.13
2022-12-09T22:34:14.589Z,29.63
2022-12-09T22:36:43.106Z,37.50
2022-12-09T22:39:13.491Z,28.90
2022-12-09T22:41:43.803Z,30.08
2022-12-09T22:44:13.798Z,30.73
2022-12-09T22:46:42.794Z,35.25
2022-12-09T22:49:13.734Z,31.48
2022-12-09T22:51:42.621Z,27.80
2022-12-09T22:54:11.144Z,34.17
2022-12-09T22:56:41.133Z,31.20
2022-12-09T22:59:10.675Z,30.95
2022-12-09T23:01:38.968Z,34.35
2022-12-09T23:04:08.918Z,28.98
2022-12-09T23:06:39.222Z,27.25
2022-12-09T23:09:08.788Z,30.10
2022-12-09T23:11:37.698Z,32.65
2022-12-09T23:14:06.063Z,32.83
2022-12-09T23:16:35.320Z,34.42
2022-12-09T23:19:03.355Z,35.13
2022-12-09T23:21:33.240Z,33.57
2022-12-09T23:24:03.346Z,37.47
2022-12-09T23:26:34.418Z,38.60
2022-12-09T23:29:04.404Z,30.55
2022-12-09T23:31:37.578Z,33.83
2022-12-09T23:34:07.223Z,29.70
2022-12-09T23:36:37.179Z,32.78
2022-12-09T23:39:09.389Z,30.45
2022-12-09T23:41:37.734Z,27.17
2022-12-09T23:44:09.817Z,32.97
2022-12-09T23:46:39.813Z,30.17
2022-12-09T23:49:08.509Z,32.80
2022-12-09T23:51:39.507Z,36.55
2022-12-09T23:54:09.433Z,35.00
2022-12-09T23:56:39.924Z,34.22
2022-12-09T23:59:09.867Z,31.13
